Time;durP1;ratioP1;P1;durP2;ratioP2;P2;SDS_P1;SDS_P2;PMS_P1;PMS_P2;Temp;Humidity;BMP_temperature;BMP_pressure;BME280_temperature;BME280_humidity;BME280_pressure;Samples;Min_cycle;Max_cycle;Signal;HPM_P1;HPM_P2
2022/07/06 00:02:16;;;;;;;0.13;0.07;;;;;;;14.88;80.50;101081.81;5072890;28;20183;-73
2022/07/06 00:04:41;;;;;;;0.00;0.00;;;;;;;14.83;80.84;101077.28;5072679;28;20210;-73
2022/07/06 00:07:06;;;;;;;0.00;0.00;;;;;;;14.79;81.22;101078.28;5072422;28;20649;-73
2022/07/06 00:09:33;;;;;;;0.00;0.00;;;;;;;14.72;81.52;101078.75;5063724;28;20194;-74
2022/07/06 00:11:58;;;;;;;0.00;0.00;;;;;;;14.65;82.13;101075.69;5072306;28;20203;-73
2022/07/06 00:14:23;;;;;;;0.20;0.20;;;;;;;14.61;82.65;101073.88;5071242;28;20185;-73
2022/07/06 00:16:49;;;;;;;0.00;0.00;;;;;;;14.56;83.05;101070.16;5072051;28;20177;-73
2022/07/06 00:19:14;;;;;;;0.00;0.00;;;;;;;14.51;83.36;101075.84;5071866;28;20179;-73
2022/07/06 00:21:40;;;;;;;0.00;0.00;;;;;;;14.49;83.63;101066.28;5072134;28;20190;-74
2022/07/06 00:24:05;;;;;;;0.00;0.00;;;;;;;14.47;83.56;101068.56;5071807;28;20284;-74
2022/07/06 00:26:31;;;;;;;0.00;0.00;;;;;;;14.44;83.82;101071.94;5071701;28;20582;-73
2022/07/06 00:28:56;;;;;;;4.17;0.77;;;;;;;14.43;83.38;101071.09;5071272;28;20235;-72
2022/07/06 00:31:21;;;;;;;0.00;0.00;;;;;;;14.43;83.04;101064.78;5072147;28;20301;-73
2022/07/06 00:33:46;;;;;;;0.00;0.00;;;;;;;14.43;82.80;101076.59;5072083;28;20175;-74
2022/07/06 00:36:12;;;;;;;0.10;0.10;;;;;;;14.43;82.90;101078.53;5071874;28;20175;-73
2022/07/06 00:38:37;;;;;;;0.00;0.00;;;;;;;14.43;82.40;101075.78;5070464;28;20250;-74
2022/07/06 00:41:03;;;;;;;2.53;0.87;;;;;;;14.44;82.08;101067.25;5072003;28;20181;-74
2022/07/06 00:43:28;;;;;;;0.00;0.00;;;;;;;14.48;81.91;101078.44;5072174;28;20174;-74
2022/07/06 00:45:54;;;;;;;0.00;0.00;;;;;;;14.48;81.57;101070.19;5071758;28;20216;-74
2022/07/06 00:48:19;;;;;;;0.00;0.00;;;;;;;14.48;81.27;101071.00;5070989;28;20178;-75
2022/07/06 00:50:44;;;;;;;0.00;0.00;;;;;;;14.44;81.74;101069.19;5072258;28;20210;-75
2022/07/06 00:53:10;;;;;;;0.10;0.10;;;;;;;14.43;82.10;101062.84;5075843;28;20213;-75
2022/07/06 00:55:40;;;;;;;0.03;0.03;;;;;;;14.38;82.06;101064.94;5075183;28;20170;-75
2022/07/06 00:58:07;;;;;;;0.00;0.00;;;;;;;14.28;81.65;101074.31;5070267;28;20767;-75
2022/07/06 01:00:34;;;;;;;0.00;0.00;;;;;;;14.23;81.72;101071.72;5071692;28;20178;-75
2022/07/06 01:02:59;;;;;;;0.00;0.00;;;;;;;14.19;82.31;101079.00;5072299;28;20641;-74
2022/07/06 01:05:25;;;;;;;0.00;0.00;;;;;;;14.07;83.08;101076.84;5070623;28;20269;-74
2022/07/06 01:07:52;;;;;;;0.10;0.10;;;;;;;14.04;83.01;101080.25;5071496;28;20204;-74
2022/07/06 01:10:19;;;;;;;0.00;0.00;;;;;;;13.99;83.07;101083.13;5071772;28;20229;-74
2022/07/06 01:12:46;;;;;;;0.30;0.30;;;;;;;14.01;82.96;101075.38;5071329;28;20259;-75
2022/07/06 01:15:16;;;;;;;0.30;0.30;;;;;;;13.98;82.96;101076.00;5071306;28;20178;-75
2022/07/06 01:17:42;;;;;;;0.00;0.00;;;;;;;13.99;83.17;101069.38;5071438;28;20170;-75
2022/07/06 01:20:14;;;;;;;0.00;0.00;;;;;;;14.00;83.10;101079.25;5070677;28;20645;-75
2022/07/06 01:22:40;;;;;;;0.00;0.00;;;;;;;14.02;82.65;101073.44;5071064;28;20630;-73
2022/07/06 01:25:07;;;;;;;0.00;0.00;;;;;;;14.07;82.49;101085.09;5071020;28;20178;-75
2022/07/06 01:27:37;;;;;;;0.30;0.30;;;;;;;14.12;82.33;101078.63;5070783;28;20182;-75
2022/07/06 01:30:04;;;;;;;0.93;0.93;;;;;;;14.15;81.90;101072.50;5069153;28;20189;-73
2022/07/06 01:32:29;;;;;;;0.00;0.00;;;;;;;14.17;81.33;101068.28;5070955;28;20175;-75
2022/07/06 01:34:55;;;;;;;0.00;0.00;;;;;;;14.20;81.20;101072.38;5070867;28;20182;-75
2022/07/06 01:37:20;;;;;;;0.00;0.00;;;;;;;14.25;81.27;101070.25;5069017;28;20526;-74
2022/07/06 01:39:45;;;;;;;26.87;0.93;;;;;;;14.24;80.74;101065.91;5070590;28;20166;-72
2022/07/06 01:42:10;;;;;;;0.00;0.00;;;;;;;14.23;80.88;101080.78;5069617;28;20645;-74
2022/07/06 01:44:36;;;;;;;0.53;0.30;;;;;;;14.18;80.15;101075.44;5070854;28;20198;-74
2022/07/06 01:47:01;;;;;;;0.20;0.20;;;;;;;14.15;80.70;101072.50;5070372;28;20167;-73
2022/07/06 01:49:27;;;;;;;0.10;0.10;;;;;;;14.15;80.98;101067.81;5068868;28;20630;-74
2022/07/06 01:51:52;;;;;;;0.00;0.00;;;;;;;14.16;80.95;101074.13;5070552;28;20205;-73
2022/07/06 01:54:17;;;;;;;0.00;0.00;;;;;;;14.19;80.55;101070.75;5070610;28;20296;-74
2022/07/06 01:56:42;;;;;;;0.40;0.40;;;;;;;14.21;80.26;101068.50;5070303;28;20422;-73
2022/07/06 01:59:09;;;;;;;0.00;0.00;;;;;;;14.21;80.11;101069.28;5070048;28;20729;-73
2022/07/06 02:01:34;;;;;;;0.00;0.00;;;;;;;14.21;80.07;101073.97;5070413;28;20181;-73
2022/07/06 02:03:59;;;;;;;0.00;0.00;;;;;;;14.20;79.84;101069.63;5070849;28;20179;-74
2022/07/06 02:06:25;;;;;;;0.00;0.00;;;;;;;14.22;79.65;101070.91;5070496;28;20504;-74
2022/07/06 02:08:51;;;;;;;0.00;0.00;;;;;;;14.22;79.19;101076.41;5068498;28;20174;-75
2022/07/06 02:11:17;;;;;;;0.00;0.00;;;;;;;14.21;78.65;101073.97;5070365;28;20198;-74
2022/07/06 02:13:42;;;;;;;0.00;0.00;;;;;;;14.22;77.52;101073.66;5070365;28;20516;-74
2022/07/06 02:16:08;;;;;;;0.20;0.20;;;;;;;14.23;78.29;101079.97;5070659;28;20523;-75
2022/07/06 02:18:33;;;;;;;0.00;0.00;;;;;;;14.20;78.57;101077.88;5069602;28;20166;-73
2022/07/06 02:20:59;;;;;;;0.00;0.00;;;;;;;14.15;78.19;101080.75;5070376;28;20180;-74
2022/07/06 02:23:25;;;;;;;0.10;0.10;;;;;;;14.06;77.74;101085.44;5070544;28;20535;-74
2022/07/06 02:25:51;;;;;;;0.00;0.00;;;;;;;14.06;78.06;101083.50;5070304;28;20194;-74
2022/07/06 02:28:16;;;;;;;0.00;0.00;;;;;;;14.07;78.28;101087.03;5069504;28;20203;-73
2022/07/06 02:30:42;;;;;;;0.00;0.00;;;;;;;14.04;78.04;101091.25;5070037;28;20205;-74
2022/07/06 02:33:07;;;;;;;0.00;0.00;;;;;;;14.06;78.40;101088.16;5070165;28;20166;-74
2022/07/06 02:35:32;;;;;;;0.00;0.00;;;;;;;14.05;78.41;101090.09;5068626;28;20201;-74
2022/07/06 02:37:58;;;;;;;0.20;0.20;;;;;;;14.06;78.49;101086.22;5068384;28;20179;-74
2022/07/06 02:40:23;;;;;;;0.00;0.00;;;;;;;14.03;78.42;101092.34;5069991;28;20171;-74
2022/07/06 02:42:48;;;;;;;0.00;0.00;;;;;;;14.02;78.82;101093.47;5070049;28;20243;-74
2022/07/06 02:45:14;;;;;;;2.40;0.50;;;;;;;13.98;78.93;101089.75;5069871;28;20250;-74
2022/07/06 02:47:39;;;;;;;0.00;0.00;;;;;;;13.99;79.03;101099.59;5069721;28;20182;-74
2022/07/06 02:50:05;;;;;;;0.00;0.00;;;;;;;13.96;79.03;101090.06;5072303;28;20707;-74
2022/07/06 02:52:31;;;;;;;1.07;1.07;;;;;;;13.91;79.27;101095.72;5072390;28;20202;-73
2022/07/06 02:54:56;;;;;;;0.00;0.00;;;;;;;13.90;79.95;101096.03;5073981;28;20210;-74
2022/07/06 02:57:22;;;;;;;0.20;0.10;;;;;;;13.86;79.78;101095.03;5073361;28;20635;-73
2022/07/06 02:59:49;;;;;;;0.23;0.23;;;;;;;13.88;80.39;101092.78;5073062;28;20520;-73
2022/07/06 03:02:15;;;;;;;0.00;0.00;;;;;;;13.87;80.05;101097.47;5073539;28;20228;-75
2022/07/06 03:04:41;;;;;;;0.00;0.00;;;;;;;13.88;79.96;101101.81;5072017;28;20174;-74
2022/07/06 03:07:06;;;;;;;0.13;0.13;;;;;;;13.83;80.33;101101.97;5073470;28;20477;-73
2022/07/06 03:09:32;;;;;;;0.00;0.00;;;;;;;13.82;80.96;101103.09;5073292;28;20714;-73
2022/07/06 03:11:58;;;;;;;8.10;0.83;;;;;;;13.80;80.91;101102.63;5073535;28;20194;-73
2022/07/06 03:14:25;;;;;;;0.00;0.00;;;;;;;13.80;81.14;101101.81;5071931;28;20178;-74
2022/07/06 03:16:50;;;;;;;0.00;0.00;;;;;;;13.78;81.31;101109.56;5072961;28;20441;-74
2022/07/06 03:19:16;;;;;;;0.00;0.00;;;;;;;13.77;81.56;101099.69;5072728;28;20175;-74
2022/07/06 03:21:41;;;;;;;3.20;1.40;;;;;;;13.77;81.74;101096.97;5073126;28;20162;-73
2022/07/06 03:24:06;;;;;;;0.00;0.00;;;;;;;13.79;81.90;101100.19;5073020;28;20171;-73
2022/07/06 03:26:32;;;;;;;0.00;0.00;;;;;;;13.80;81.83;101108.09;5072728;28;20186;-74
2022/07/06 03:28:57;;;;;;;0.00;0.00;;;;;;;13.79;82.31;101106.50;5073189;28;20166;-74
2022/07/06 03:31:22;;;;;;;0.77;0.77;;;;;;;13.80;82.35;101105.38;5073116;28;20202;-73
2022/07/06 03:33:47;;;;;;;17.43;0.60;;;;;;;13.77;82.52;101108.75;5072984;28;20217;-74
2022/07/06 03:36:13;;;;;;;0.43;0.43;;;;;;;13.72;82.89;101103.38;5072871;28;20171;-74
2022/07/06 03:38:38;;;;;;;0.00;0.00;;;;;;;13.70;83.00;101106.44;5071079;28;20185;-74
2022/07/06 03:41:04;;;;;;;0.00;0.00;;;;;;;13.68;83.04;101102.41;5073491;28;20171;-73
2022/07/06 03:43:30;;;;;;;0.00;0.00;;;;;;;13.72;83.49;101099.81;5073608;28;20543;-74
2022/07/06 03:45:55;;;;;;;0.00;0.00;;;;;;;13.75;83.97;101097.28;5073151;28;20243;-73
2022/07/06 03:48:21;;;;;;;0.10;0.10;;;;;;;13.78;84.00;101098.56;5072473;28;20674;-73
2022/07/06 03:50:46;;;;;;;0.00;0.00;;;;;;;13.78;83.80;101098.56;5072815;28;20263;-73
2022/07/06 03:53:11;;;;;;;0.00;0.00;;;;;;;13.80;83.87;101105.38;5073087;28;20175;-73
2022/07/06 03:55:37;;;;;;;0.00;0.00;;;;;;;13.83;83.61;101098.41;5072821;28;20193;-73
2022/07/06 03:58:03;;;;;;;0.00;0.00;;;;;;;13.86;83.85;101097.78;5072283;28;20227;-73
2022/07/06 04:00:28;;;;;;;0.30;0.30;;;;;;;13.82;83.94;101114.09;5072156;28;20194;-74
2022/07/06 04:02:53;;;;;;;0.00;0.00;;;;;;;13.79;84.48;101114.72;5071338;28;20626;-73
2022/07/06 04:05:22;;;;;;;0.00;0.00;;;;;;;13.76;84.85;101114.56;5068027;28;20336;-74
2022/07/06 04:07:48;;;;;;;0.00;0.00;;;;;;;13.75;85.19;101121.19;5052193;28;20258;-74
2022/07/06 04:10:15;;;;;;;0.00;0.00;;;;;;;13.76;84.96;101122.81;5052595;28;20354;-74
2022/07/06 04:12:44;;;;;;;0.00;0.00;;;;;;;13.78;85.18;101117.81;5055624;28;20187;-74
2022/07/06 04:15:11;;;;;;;8.13;0.20;;;;;;;13.80;85.16;101119.09;5052705;28;20182;-74
2022/07/06 04:17:52;;;;;;;0.57;0.57;;;;;;;13.86;84.94;101120.56;5052305;28;20183;-74
2022/07/06 04:20:18;;;;;;;0.43;0.20;;;;;;;13.91;85.21;101128.69;5052460;28;20167;-73
2022/07/06 04:22:43;;;;;;;0.00;0.00;;;;;;;13.90;84.78;101120.75;5052335;28;20179;-74
2022/07/06 04:25:09;;;;;;;0.00;0.00;;;;;;;13.91;84.07;101125.13;5052314;28;20305;-75
2022/07/06 04:27:34;;;;;;;0.00;0.00;;;;;;;13.94;84.32;101119.81;5053113;28;20171;-73
2022/07/06 04:30:00;;;;;;;0.30;0.30;;;;;;;13.99;83.93;101125.16;5063035;28;20183;-75
2022/07/06 04:32:26;;;;;;;0.00;0.00;;;;;;;14.01;83.46;101124.81;5072444;28;20627;-74
2022/07/06 04:34:51;;;;;;;0.40;0.10;;;;;;;14.01;83.41;101130.31;5072016;28;20745;-74
2022/07/06 04:37:16;;;;;;;0.00;0.00;;;;;;;14.02;83.09;101140.19;5050948;28;20659;-75
2022/07/06 04:39:42;;;;;;;0.00;0.00;;;;;;;13.97;83.17;101132.91;5057318;28;20186;-74
2022/07/06 04:42:07;;;;;;;0.10;0.10;;;;;;;14.02;83.32;101131.13;5071726;28;20634;-74
2022/07/06 04:44:32;;;;;;;0.20;0.20;;;;;;;14.04;83.27;101145.38;5072016;28;20186;-74
2022/07/06 04:46:58;;;;;;;0.10;0.10;;;;;;;14.00;82.40;101148.75;5071472;28;20171;-74
2022/07/06 04:49:23;;;;;;;0.10;0.10;;;;;;;14.05;82.59;101142.31;5070257;28;20198;-74
2022/07/06 04:51:48;;;;;;;0.10;0.10;;;;;;;14.05;82.45;101139.56;5067041;28;20209;-74
2022/07/06 04:54:14;;;;;;;0.00;0.00;;;;;;;14.10;82.16;101142.16;5060178;28;20286;-73
2022/07/06 04:56:39;;;;;;;0.00;0.00;;;;;;;14.11;82.21;101142.97;5071327;28;20281;-74
2022/07/06 04:59:08;;;;;;;1.50;0.13;;;;;;;14.17;81.96;101136.19;5071134;28;20171;-73
2022/07/06 05:01:33;;;;;;;0.73;0.33;;;;;;;14.19;81.87;101139.47;5071496;28;20173;-73
2022/07/06 05:03:59;;;;;;;0.00;0.00;;;;;;;14.26;82.09;101137.03;5071474;28;20175;-74
2022/07/06 05:06:24;;;;;;;0.07;0.07;;;;;;;14.29;81.91;101134.44;5071559;28;20282;-74
2022/07/06 05:08:49;;;;;;;0.00;0.00;;;;;;;14.31;81.84;101136.88;5069664;28;20178;-74
2022/07/06 05:11:15;;;;;;;0.00;0.00;;;;;;;14.37;82.33;101132.06;5070601;28;20195;-73
2022/07/06 05:13:40;;;;;;;0.00;0.00;;;;;;;14.40;81.90;101131.41;5071221;28;20174;-73
2022/07/06 05:16:05;;;;;;;0.33;0.27;;;;;;;14.34;81.54;101121.72;5071175;28;20219;-73
2022/07/06 05:18:31;;;;;;;0.00;0.00;;;;;;;14.37;81.87;101132.06;5069286;28;20170;-74
2022/07/06 05:20:56;;;;;;;0.07;0.07;;;;;;;14.47;82.13;101129.06;5071191;28;20215;-74
2022/07/06 05:23:22;;;;;;;0.40;0.40;;;;;;;14.50;82.05;101139.41;5071464;28;20549;-73
2022/07/06 05:25:47;;;;;;;0.73;0.37;;;;;;;14.50;81.85;101142.16;5070992;28;20543;-74
2022/07/06 05:28:12;;;;;;;0.00;0.00;;;;;;;14.51;82.38;101138.28;5070370;28;20230;-74
2022/07/06 05:30:38;;;;;;;0.00;0.00;;;;;;;14.51;81.97;101144.59;5069214;28;20202;-73
2022/07/06 05:33:03;;;;;;;0.67;0.67;;;;;;;14.58;81.89;101146.84;5070993;28;20618;-73
2022/07/06 05:35:29;;;;;;;0.00;0.00;;;;;;;14.63;81.43;101151.41;5069559;28;20210;-73
2022/07/06 05:37:54;;;;;;;0.10;0.10;;;;;;;14.69;81.82;101153.66;5068738;28;20175;-73
2022/07/06 05:40:20;;;;;;;0.00;0.00;;;;;;;14.74;81.52;101159.00;5070909;28;20646;-73
2022/07/06 05:42:45;;;;;;;0.00;0.00;;;;;;;14.75;81.01;101154.31;5070954;28;20244;-73
2022/07/06 05:45:10;;;;;;;0.00;0.00;;;;;;;14.69;80.86;101150.91;5068373;28;20589;-74
2022/07/06 05:50:20;;;;;;;1.80;1.17;;;;;;;14.81;80.99;101156.59;5070574;28;20221;-73
2022/07/06 05:52:58;;;;;;;0.20;0.20;;;;;;;14.91;81.20;101158.22;5070827;28;20532;-73
2022/07/06 05:55:24;;;;;;;0.00;0.00;;;;;;;14.99;80.81;101165.66;5070779;28;20728;-73
2022/07/06 05:57:50;;;;;;;0.00;0.00;;;;;;;15.11;80.68;101151.25;5070540;28;20175;-73
2022/07/06 06:00:16;;;;;;;5.33;0.93;;;;;;;15.17;79.12;101158.19;5070739;28;20185;-73
2022/07/06 06:02:42;;;;;;;0.20;0.20;;;;;;;15.13;78.55;101160.81;5070585;28;20261;-74
2022/07/06 06:05:09;;;;;;;2.00;0.70;;;;;;;15.11;78.84;101163.06;5070408;28;20187;-72
2022/07/06 06:07:36;;;;;;;0.00;0.00;;;;;;;15.11;79.00;101154.81;5070348;28;20170;-72
2022/07/06 06:10:04;;;;;;;0.10;0.10;;;;;;;15.24;78.97;101161.28;5070262;28;20206;-74
2022/07/06 06:12:29;;;;;;;0.00;0.00;;;;;;;15.23;78.08;101156.94;5070673;28;20194;-73
2022/07/06 06:14:54;;;;;;;1.70;1.60;;;;;;;15.27;79.02;101160.63;5070574;28;20202;-73
2022/07/06 06:17:20;;;;;;;0.37;0.37;;;;;;;15.25;78.41;101165.66;5068872;28;20206;-73
2022/07/06 06:19:45;;;;;;;0.47;0.47;;;;;;;15.27;79.31;101162.59;5068672;28;20178;-73
2022/07/06 06:22:10;;;;;;;3.80;0.60;;;;;;;15.25;79.51;101165.66;5070574;28;20182;-73
2022/07/06 06:24:36;;;;;;;0.30;0.30;;;;;;;15.26;79.95;101163.72;5074350;28;20212;-73
2022/07/06 06:27:01;;;;;;;0.00;0.00;;;;;;;15.22;79.65;101166.31;5073036;28;20475;-73
2022/07/06 06:29:26;;;;;;;3.30;0.20;;;;;;;15.22;80.09;101165.50;5073040;28;20174;-73
2022/07/06 06:31:52;;;;;;;0.33;0.13;;;;;;;15.11;79.74;101167.78;5074326;28;20214;-73
2022/07/06 06:34:17;;;;;;;0.57;0.47;;;;;;;15.02;79.93;101169.69;5074315;28;20560;-73
2022/07/06 06:36:42;;;;;;;0.00;0.00;;;;;;;15.08;80.56;101168.44;5069105;28;20210;-74
2022/07/06 06:39:08;;;;;;;0.60;0.20;;;;;;;15.20;79.41;101176.03;5053926;28;20657;-72
2022/07/06 06:41:33;;;;;;;0.10;0.10;;;;;;;15.28;78.36;101176.03;5054334;28;20253;-73
2022/07/06 06:43:58;;;;;;;0.20;0.10;;;;;;;15.45;78.72;101177.94;5054109;28;20194;-73
2022/07/06 06:46:24;;;;;;;0.10;0.10;;;;;;;15.54;76.63;101175.19;5053947;28;20171;-73
2022/07/06 06:48:49;;;;;;;0.00;0.00;;;;;;;15.69;76.12;101177.44;5067110;28;20214;-74
2022/07/06 06:51:14;;;;;;;0.00;0.00;;;;;;;15.76;75.28;101180.50;5073683;28;20579;-74
2022/07/06 06:53:40;;;;;;;0.00;0.00;;;;;;;15.88;74.38;101179.81;5073882;28;20179;-74
2022/07/06 06:56:05;;;;;;;0.00;0.00;;;;;;;15.97;74.51;101181.41;5073744;28;20258;-74
2022/07/06 06:58:30;;;;;;;0.00;0.00;;;;;;;15.99;73.38;101179.13;5073418;28;20186;-74
2022/07/06 07:00:56;;;;;;;0.00;0.00;;;;;;;15.91;73.18;101185.50;5073745;28;20179;-74
2022/07/06 07:03:21;;;;;;;0.20;0.20;;;;;;;15.99;73.73;101187.41;5074082;28;20201;-74
2022/07/06 07:05:48;;;;;;;0.00;0.00;;;;;;;16.15;72.22;101192.38;5073606;28;20175;-73
2022/07/06 07:08:13;;;;;;;0.00;0.00;;;;;;;16.30;71.68;101198.16;5073380;28;20265;-74
2022/07/06 07:10:38;;;;;;;0.00;0.00;;;;;;;16.34;70.76;101201.03;5073516;28;20289;-74
2022/07/06 07:13:03;;;;;;;0.00;0.00;;;;;;;16.18;69.95;101211.00;5074215;28;20244;-74
2022/07/06 07:15:29;;;;;;;0.00;0.00;;;;;;;16.13;68.94;101208.44;5073622;28;20178;-75
2022/07/06 07:17:54;;;;;;;0.00;0.00;;;;;;;16.18;69.94;101209.06;5073088;28;20269;-75
2022/07/06 07:20:19;;;;;;;0.30;0.20;;;;;;;16.06;68.63;101206.22;5073484;28;20206;-74
2022/07/06 07:22:45;;;;;;;5.17;0.40;;;;;;;16.05;68.82;101208.13;5073787;28;20198;-73
2022/07/06 07:25:10;;;;;;;2.33;0.10;;;;;;;15.94;69.02;101212.41;5073737;28;20278;-73
2022/07/06 07:27:36;;;;;;;0.00;0.00;;;;;;;16.11;69.47;101217.06;5073516;28;20190;-73
2022/07/06 07:30:01;;;;;;;0.00;0.00;;;;;;;16.12;68.31;101226.94;5073145;28;20175;-72
2022/07/06 07:32:27;;;;;;;5.93;0.07;;;;;;;16.06;68.98;101226.31;5073416;28;20261;-73
2022/07/06 07:34:52;;;;;;;0.00;0.00;;;;;;;16.08;68.51;101223.22;5072141;28;20277;-72
2022/07/06 07:37:17;;;;;;;0.00;0.00;;;;;;;16.09;67.80;101219.34;5071861;28;20202;-73
2022/07/06 07:39:43;;;;;;;0.00;0.00;;;;;;;16.03;67.05;101218.69;5072831;28;20178;-73
2022/07/06 07:42:08;;;;;;;2.40;1.50;;;;;;;16.10;67.47;101220.94;5073565;28;20183;-73
2022/07/06 07:44:33;;;;;;;0.00;0.00;;;;;;;16.09;68.22;101221.28;5073264;28;20210;-73
2022/07/06 07:46:59;;;;;;;0.23;0.23;;;;;;;16.24;69.01;101223.50;5072706;28;20269;-72
2022/07/06 07:49:24;;;;;;;0.37;0.13;;;;;;;16.36;67.90;101229.94;5072368;28;20190;-73
2022/07/06 07:51:49;;;;;;;0.00;0.00;;;;;;;16.36;67.07;101221.66;5072779;28;20198;-73
2022/07/06 07:54:15;;;;;;;0.00;0.00;;;;;;;16.49;67.44;101227.25;5073081;28;20233;-73
2022/07/06 07:56:41;;;;;;;0.20;0.20;;;;;;;16.48;67.08;101228.41;5072394;28;20178;-73
2022/07/06 07:59:07;;;;;;;0.00;0.00;;;;;;;16.26;66.96;101221.22;5070415;28;20206;-73
2022/07/06 08:01:32;;;;;;;0.57;0.57;;;;;;;16.28;66.34;101221.69;5072362;28;20175;-72
2022/07/06 08:03:58;;;;;;;0.10;0.10;;;;;;;16.28;66.27;101222.50;5072604;28;20630;-72
2022/07/06 08:06:24;;;;;;;18.43;0.90;;;;;;;16.32;65.96;101231.72;5072639;28;20175;-73
2022/07/06 08:08:49;;;;;;;0.20;0.20;;;;;;;16.20;64.52;101226.09;5070650;28;20178;-73
2022/07/06 08:11:14;;;;;;;0.00;0.00;;;;;;;16.34;65.14;101234.13;5072277;28;20206;-73
2022/07/06 08:13:40;;;;;;;0.00;0.00;;;;;;;16.46;63.65;101237.00;5070957;28;20239;-72
2022/07/06 08:16:05;;;;;;;0.00;0.00;;;;;;;16.56;63.46;101239.41;5072455;28;20534;-73
2022/07/06 08:18:30;;;;;;;8.60;0.43;;;;;;;16.45;63.01;101231.81;5071687;28;20260;-73
2022/07/06 08:20:56;;;;;;;0.00;0.00;;;;;;;16.52;64.35;101232.13;5065905;28;20237;-73
2022/07/06 08:23:22;;;;;;;0.00;0.00;;;;;;;16.61;63.78;101235.63;5072026;28;20180;-72
2022/07/06 08:25:48;;;;;;;0.00;0.00;;;;;;;16.68;64.02;101232.41;5072309;28;20190;-73
2022/07/06 08:28:13;;;;;;;1.10;0.90;;;;;;;16.68;62.14;101232.41;5071239;28;20166;-73
2022/07/06 08:30:38;;;;;;;0.00;0.00;;;;;;;16.60;61.85;101231.25;5069794;28;20216;-74
2022/07/06 08:33:04;;;;;;;0.00;0.00;;;;;;;16.61;63.49;101239.22;5065740;28;20380;-73
2022/07/06 08:35:29;;;;;;;0.00;0.00;;;;;;;16.75;63.50;101247.28;5071664;28;20175;-73
2022/07/06 08:37:54;;;;;;;0.10;0.10;;;;;;;16.82;63.03;101239.31;5071268;28;20171;-73
2022/07/06 08:40:20;;;;;;;0.03;0.03;;;;;;;16.74;62.96;101242.09;5071752;28;20182;-74
2022/07/06 08:42:48;;;;;;;0.00;0.00;;;;;;;16.65;63.60;101234.66;5071418;28;20216;-75
2022/07/06 08:45:14;;;;;;;2.30;1.60;;;;;;;16.81;62.01;101239.63;5071343;28;20206;-75
2022/07/06 08:47:41;;;;;;;0.00;0.00;;;;;;;16.74;59.82;101236.56;5069610;28;20222;-74
2022/07/06 08:50:08;;;;;;;0.10;0.10;;;;;;;16.72;58.34;101236.91;5070742;28;20681;-74
2022/07/06 08:52:34;;;;;;;0.10;0.10;;;;;;;16.77;59.96;101241.44;5071222;28;20170;-74
2022/07/06 08:55:00;;;;;;;0.17;0.07;;;;;;;16.74;60.89;101231.06;5071427;28;20252;-75
2022/07/06 08:57:26;;;;;;;0.20;0.20;;;;;;;16.72;56.25;101236.09;5071116;28;20171;-75
2022/07/06 08:59:51;;;;;;;0.00;0.00;;;;;;;16.65;56.47;101231.91;5071112;28;20227;-73
2022/07/06 09:02:17;;;;;;;0.00;0.00;;;;;;;16.76;57.98;101234.28;5071301;28;20658;-72
2022/07/06 09:04:43;;;;;;;0.00;0.00;;;;;;;16.69;57.76;101232.06;5069682;28;20183;-72
2022/07/06 09:07:09;;;;;;;0.53;0.53;;;;;;;16.84;57.70;101233.44;5070920;28;20170;-73
2022/07/06 09:09:36;;;;;;;2.93;0.20;;;;;;;16.84;57.08;101244.47;5070827;28;20177;-73
2022/07/06 09:12:02;;;;;;;0.00;0.00;;;;;;;16.84;56.56;101237.00;5070999;28;20194;-73
2022/07/06 09:14:28;;;;;;;0.10;0.10;;;;;;;16.71;58.47;101240.81;5070864;28;20243;-72
2022/07/06 09:17:05;;;;;;;0.13;0.13;;;;;;;16.55;59.37;101242.50;5070858;28;20190;-72
2022/07/06 09:19:32;;;;;;;1.33;0.53;;;;;;;16.59;59.63;101243.44;5068274;28;20265;-73
2022/07/06 09:21:58;;;;;;;0.00;0.00;;;;;;;16.61;60.53;101250.25;5070874;28;20685;-73
2022/07/06 09:24:26;;;;;;;0.10;0.10;;;;;;;16.72;60.83;101242.44;5070247;28;20273;-73
2022/07/06 09:26:55;;;;;;;0.00;0.00;;;;;;;16.86;60.25;101240.25;5070483;28;20178;-73
2022/07/06 09:29:27;;;;;;;0.00;0.00;;;;;;;16.94;59.60;101241.34;5069224;28;20186;-73
2022/07/06 09:32:01;;;;;;;0.23;0.10;;;;;;;17.05;60.09;101239.78;5070587;28;20212;-72
2022/07/06 09:34:41;;;;;;;0.00;0.00;;;;;;;16.93;58.53;101237.78;5070854;28;20254;-72
2022/07/06 09:37:06;;;;;;;0.00;0.00;;;;;;;16.94;58.66;101241.34;5070329;28;20228;-72
2022/07/06 09:39:31;;;;;;;0.00;0.00;;;;;;;17.07;59.72;101239.44;5070323;28;20182;-73
2022/07/06 09:41:59;;;;;;;10.80;0.40;;;;;;;17.51;59.07;101233.25;5070453;28;20189;-73
2022/07/06 09:44:32;;;;;;;0.10;0.10;;;;;;;17.79;56.09;101229.91;5070651;28;20182;-72
2022/07/06 09:47:03;;;;;;;0.03;0.03;;;;;;;17.76;56.20;101231.41;5064364;28;20283;-72
2022/07/06 09:49:29;;;;;;;0.00;0.00;;;;;;;17.63;57.27;101231.66;5069208;28;20185;-73
2022/07/06 09:51:56;;;;;;;0.10;0.10;;;;;;;17.66;57.76;101226.31;5067465;28;20203;-73
2022/07/06 09:54:22;;;;;;;0.00;0.00;;;;;;;17.51;58.10;101221.41;5068609;28;20631;-73
2022/07/06 09:56:52;;;;;;;0.00;0.00;;;;;;;17.67;57.94;101227.91;5070230;28;20237;-73
2022/07/06 09:59:23;;;;;;;0.00;0.00;;;;;;;17.57;56.45;101231.09;5070184;28;20171;-73
2022/07/06 10:01:54;;;;;;;1.60;0.30;;;;;;;17.46;56.76;101227.13;5070685;28;20672;-73
2022/07/06 10:04:20;;;;;;;0.00;0.00;;;;;;;17.53;58.26;101221.88;5067859;28;20265;-73
2022/07/06 10:06:46;;;;;;;0.27;0.27;;;;;;;17.69;58.82;101230.38;5068275;28;20281;-73
2022/07/06 10:09:12;;;;;;;0.00;0.00;;;;;;;17.55;57.67;101225.91;5068125;28;20174;-74
2022/07/06 10:11:53;;;;;;;0.00;0.00;;;;;;;17.40;58.47;101229.28;5070541;28;20222;-73
2022/07/06 10:14:30;;;;;;;0.10;0.10;;;;;;;17.28;59.05;101233.94;5070914;28;20166;-73
2022/07/06 10:16:57;;;;;;;0.00;0.00;;;;;;;17.20;58.42;101228.13;5070308;28;20194;-73
2022/07/06 10:19:23;;;;;;;0.00;0.00;;;;;;;17.16;57.52;101237.44;5070452;28;20185;-72
2022/07/06 10:21:48;;;;;;;0.03;0.03;;;;;;;17.08;57.58;101236.38;5069258;28;20257;-74
2022/07/06 10:24:14;;;;;;;0.07;0.07;;;;;;;17.08;57.75;101230.03;5065700;28;20186;-73
2022/07/06 10:26:41;;;;;;;0.20;0.20;;;;;;;17.15;57.68;101238.59;5070265;28;20178;-73
2022/07/06 10:29:07;;;;;;;0.00;0.00;;;;;;;17.12;54.34;101248.34;5069815;28;20183;-73
2022/07/06 10:31:35;;;;;;;0.00;0.00;;;;;;;17.10;54.95;101236.84;5070364;28;20195;-73
2022/07/06 10:34:04;;;;;;;0.20;0.10;;;;;;;17.13;54.95;101238.13;5070409;28;20178;-73
2022/07/06 10:36:30;;;;;;;0.00;0.00;;;;;;;17.21;56.30;101243.59;5071442;28;20167;-73
2022/07/06 10:38:57;;;;;;;0.10;0.10;;;;;;;17.19;55.68;101234.81;5076215;28;20171;-72
2022/07/06 10:41:33;;;;;;;0.57;0.33;;;;;;;17.12;55.70;101229.03;5076736;28;20177;-72
2022/07/06 10:44:15;;;;;;;0.20;0.10;;;;;;;17.25;55.63;101227.16;5070825;28;20170;-73
2022/07/06 10:46:41;;;;;;;0.00;0.00;;;;;;;17.42;55.32;101223.44;5070713;28;20308;-73
2022/07/06 10:49:16;;;;;;;0.13;0.10;;;;;;;17.56;55.23;101223.94;5070805;28;20277;-72
2022/07/06 10:51:42;;;;;;;0.10;0.10;;;;;;;17.69;54.29;101224.84;5067131;28;20691;-73
2022/07/06 10:54:09;;;;;;;0.80;0.60;;;;;;;17.87;53.62;101220.72;5069575;28;20220;-73
2022/07/06 10:56:38;;;;;;;0.00;0.00;;;;;;;17.86;52.19;101213.59;5070054;28;20202;-73
2022/07/06 10:59:11;;;;;;;0.00;0.00;;;;;;;18.03;52.39;101210.63;5070004;28;20527;-73
2022/07/06 11:01:36;;;;;;;0.00;0.00;;;;;;;18.09;52.43;101203.75;5070518;28;20184;-72
2022/07/06 11:04:02;;;;;;;0.20;0.20;;;;;;;18.18;53.01;101211.91;5069364;28;20624;-73
2022/07/06 11:06:31;;;;;;;0.07;0.07;;;;;;;17.89;52.13;101209.34;5070347;28;20174;-73
2022/07/06 11:08:57;;;;;;;0.20;0.20;;;;;;;17.72;53.46;101210.34;5069971;28;20171;-72
2022/07/06 11:11:35;;;;;;;1.13;1.13;;;;;;;17.61;53.82;101204.38;5073259;28;20503;-73
2022/07/06 11:14:15;;;;;;;0.00;0.00;;;;;;;17.45;54.17;101214.44;5073759;28;20223;-72
2022/07/06 11:16:47;;;;;;;0.00;0.00;;;;;;;17.35;53.94;101212.91;5073639;28;20177;-72
2022/07/06 11:19:14;;;;;;;0.00;0.00;;;;;;;17.28;54.08;101206.31;5073438;28;20253;-73
2022/07/06 11:21:43;;;;;;;0.00;0.00;;;;;;;17.27;55.36;101207.47;5073419;28;20257;-72
2022/07/06 11:24:11;;;;;;;0.00;0.00;;;;;;;17.34;55.04;101204.97;5073174;28;20175;-73